Time;durP1;ratioP1;P1;durP2;ratioP2;P2;SDS_P1;SDS_P2;PMS_P1;PMS_P2;Temp;Humidity;BMP_temperature;BMP_pressure;BME280_temperature;BME280_humidity;BME280_pressure;Samples;Min_cycle;Max_cycle;Signal;HPM_P1;HPM_P2
2023/09/05 08:25:51;;;;;;;1.27;0.90;;;27.40;99.90;;;;;;5045686;23;20226;-73
2023/09/05 08:28:19;;;;;;;1.35;0.90;;;27.50;99.90;;;;;;4898495;29;20229;-70
2023/09/05 08:30:46;;;;;;;1.25;1.05;;;27.80;99.90;;;;;;4904209;29;20242;-72
2023/09/05 08:33:13;;;;;;;1.15;1.00;;;27.90;99.90;;;;;;4926510;29;20276;-72
2023/09/05 08:35:41;;;;;;;0.98;0.80;;;27.70;99.90;;;;;;4924407;29;20735;-72
2023/09/05 08:38:08;;;;;;;1.77;1.27;;;27.80;99.90;;;;;;4917783;29;20210;-73
2023/09/05 08:40:35;;;;;;;1.52;1.00;;;28.20;99.90;;;;;;4917926;29;20210;-73
2023/09/05 08:43:02;;;;;;;1.50;0.80;;;28.20;99.90;;;;;;4916959;29;20320;-71
2023/09/05 08:45:32;;;;;;;1.17;0.75;;;27.90;99.80;;;;;;4918735;29;20297;-73
2023/09/05 08:47:59;;;;;;;2.05;1.10;;;27.60;99.90;;;;;;4918544;29;20216;-73
2023/09/05 08:50:26;;;;;;;1.20;0.90;;;27.60;99.90;;;;;;4918536;29;20685;-73
2023/09/05 08:52:56;;;;;;;2.58;1.10;;;27.70;99.90;;;;;;4917735;29;20596;-70
2023/09/05 08:55:25;;;;;;;0.93;0.80;;;27.70;99.90;;;;;;4918188;29;20381;-70
2023/09/05 08:57:54;;;;;;;2.53;0.82;;;27.60;99.40;;;;;;4918218;29;20300;-73
2023/09/05 09:00:21;;;;;;;1.38;1.05;;;27.60;99.90;;;;;;4918493;29;20214;-75
2023/09/05 09:02:50;;;;;;;1.40;1.00;;;27.40;99.90;;;;;;4917923;29;20237;-73
2023/09/05 09:05:18;;;;;;;1.02;0.80;;;27.40;99.90;;;;;;4918046;29;20213;-73
2023/09/05 09:07:44;;;;;;;1.60;0.90;;;27.40;99.90;;;;;;4917822;29;20241;-73
2023/09/05 09:10:21;;;;;;;1.25;0.85;;;27.70;99.90;;;;;;4917771;29;20273;-74
2023/09/05 09:12:54;;;;;;;1.55;1.02;;;27.80;99.90;;;;;;4917700;29;20343;-73
2023/09/05 09:15:24;;;;;;;1.08;0.70;;;27.50;99.90;;;;;;4917817;29;20214;-73
2023/09/05 09:17:53;;;;;;;1.58;0.90;;;27.90;99.90;;;;;;4917936;29;20214;-70
2023/09/05 09:20:23;;;;;;;1.60;1.00;;;28.10;99.90;;;;;;4917923;29;20241;-71
2023/09/05 09:22:50;;;;;;;1.63;0.98;;;27.90;99.90;;;;;;4917855;29;20234;-70
2023/09/05 09:25:20;;;;;;;1.50;1.00;;;27.90;99.90;;;;;;4917635;29;20567;-70
2023/09/05 09:27:51;;;;;;;1.55;1.02;;;27.80;99.90;;;;;;4917292;29;20214;-70
2023/09/05 09:30:23;;;;;;;1.73;0.95;;;27.50;99.90;;;;;;4917603;29;20665;-75
2023/09/05 09:32:52;;;;;;;1.70;0.90;;;27.60;99.90;;;;;;4917339;29;20726;-74
2023/09/05 09:35:20;;;;;;;1.33;0.85;;;27.40;99.90;;;;;;4917703;29;20233;-70
2023/09/05 09:37:49;;;;;;;2.78;1.00;;;27.40;99.90;;;;;;4917162;29;20209;-70
2023/09/05 09:40:17;;;;;;;1.95;0.80;;;27.20;99.90;;;;;;4917425;29;20210;-70
2023/09/05 09:42:47;;;;;;;1.42;1.05;;;27.00;99.90;;;;;;4914623;29;20252;-69
2023/09/05 09:45:14;;;;;;;1.42;0.95;;;26.60;99.90;;;;;;4927688;29;20267;-68
2023/09/05 09:47:47;;;;;;;1.50;0.93;;;26.50;99.90;;;;;;4922656;29;20293;-72
2023/09/05 09:50:17;;;;;;;1.05;0.80;;;26.50;99.90;;;;;;4930173;29;20213;-71
2023/09/05 09:52:48;;;;;;;1.45;0.93;;;26.40;99.90;;;;;;4916211;29;20788;-69
2023/09/05 09:55:16;;;;;;;2.47;1.00;;;26.30;99.90;;;;;;4916785;29;20209;-68
2023/09/05 09:57:47;;;;;;;1.33;1.00;;;26.20;99.90;;;;;;4916796;29;20237;-69
2023/09/05 10:00:18;;;;;;;3.15;1.00;;;26.10;99.90;;;;;;4916703;29;20205;-69
2023/09/05 10:02:47;;;;;;;1.30;0.98;;;26.20;99.90;;;;;;4929114;29;20225;-68
2023/09/05 10:05:16;;;;;;;1.08;0.90;;;26.30;99.90;;;;;;4916277;29;20258;-68
2023/09/05 10:07:43;;;;;;;1.30;1.00;;;26.40;99.90;;;;;;4916405;29;20209;-71
2023/09/05 10:10:15;;;;;;;2.25;1.20;;;26.50;99.90;;;;;;4916578;29;20307;-69
2023/09/05 10:12:44;;;;;;;2.88;0.90;;;26.40;99.90;;;;;;4929543;29;20316;-75
2023/09/05 10:15:13;;;;;;;1.08;0.98;;;26.50;99.90;;;;;;4916250;29;20209;-70
2023/09/05 10:17:41;;;;;;;1.00;0.73;;;26.50;99.90;;;;;;4912132;29;20291;-70
2023/09/05 10:20:14;;;;;;;2.30;1.00;;;26.50;99.90;;;;;;4919624;29;20300;-68
2023/09/05 10:22:44;;;;;;;1.90;0.90;;;26.50;99.90;;;;;;4915682;29;20229;-69
2023/09/05 10:25:13;;;;;;;1.77;1.00;;;26.30;99.90;;;;;;4911635;29;20682;-71
2023/09/05 10:27:40;;;;;;;1.17;0.90;;;26.30;99.90;;;;;;4915416;29;20292;-69
2023/09/05 10:30:10;;;;;;;3.40;1.88;;;26.30;99.90;;;;;;4916374;29;20213;-69
2023/09/05 10:32:41;;;;;;;3.83;1.00;;;26.50;99.90;;;;;;4918096;29;20240;-69
2023/09/05 10:35:08;;;;;;;1.60;1.08;;;26.70;99.90;;;;;;4914589;29;20675;-72
2023/09/05 10:37:44;;;;;;;1.77;1.00;;;26.70;99.90;;;;;;4916000;29;20236;-72
2023/09/05 10:40:12;;;;;;;2.45;1.25;;;26.70;99.90;;;;;;4922542;29;20204;-70
2023/09/05 10:42:44;;;;;;;2.60;1.13;;;26.60;99.90;;;;;;4922659;29;20229;-71
2023/09/05 10:45:29;;;;;;;1.10;0.80;;;26.70;99.90;;;;;;4915040;29;20205;-71
2023/09/05 10:48:04;;;;;;;1.80;1.10;;;26.60;99.90;;;;;;4916280;29;20339;-70
2023/09/05 10:50:32;;;;;;;1.58;1.00;;;26.70;99.90;;;;;;4916162;29;20217;-71
2023/09/05 10:53:25;;;;;;;1.10;0.95;;;26.80;99.90;;;;;;4924277;29;20319;-72
2023/09/05 10:55:54;;;;;;;1.10;1.00;;;26.80;99.90;;;;;;4925798;29;20269;-71
2023/09/05 10:58:53;;;;;;;1.35;0.90;;;26.70;99.90;;;;;;4923573;29;20201;-70
2023/09/05 11:04:34;;;;;;;1.35;1.00;;;27.10;99.90;;;;;;4913761;29;20692;-72
2023/09/05 11:07:03;;;;;;;2.35;1.10;;;27.00;99.90;;;;;;4919335;29;20205;-70
2023/09/05 11:09:40;;;;;;;1.77;1.00;;;27.00;99.90;;;;;;4918618;29;20247;-73
2023/09/05 11:12:09;;;;;;;1.10;0.95;;;27.10;99.90;;;;;;4917136;29;20292;-71
2023/09/05 11:14:38;;;;;;;1.23;0.90;;;27.10;99.90;;;;;;4912867;29;20244;-71
2023/09/05 11:17:05;;;;;;;5.68;1.33;;;27.20;99.90;;;;;;4916430;29;20201;-70
2023/09/05 11:19:37;;;;;;;1.33;1.00;;;27.30;99.90;;;;;;4917311;29;20332;-73
2023/09/05 11:22:15;;;;;;;2.20;1.27;;;27.30;99.90;;;;;;4916321;29;20300;-72
2023/09/05 11:24:48;;;;;;;1.70;1.10;;;27.30;99.90;;;;;;4917347;29;20209;-72
2023/09/05 11:27:17;;;;;;;1.45;1.02;;;27.50;99.90;;;;;;4918801;29;20241;-72
2023/09/05 11:29:45;;;;;;;1.33;1.00;;;27.50;99.90;;;;;;4930858;29;20208;-72
2023/09/05 11:32:14;;;;;;;2.08;1.30;;;27.50;99.90;;;;;;4917767;29;20573;-71
2023/09/05 11:34:45;;;;;;;1.48;1.10;;;27.50;99.90;;;;;;4916274;29;20241;-72
2023/09/05 11:37:17;;;;;;;2.15;1.20;;;27.50;99.90;;;;;;4918736;29;20248;-74
2023/09/05 11:39:46;;;;;;;1.35;1.20;;;27.60;99.90;;;;;;4919942;29;20288;-75
2023/09/05 11:42:18;;;;;;;1.38;1.00;;;27.80;99.90;;;;;;4918970;29;20300;-71
2023/09/05 11:44:45;;;;;;;1.70;1.20;;;27.90;99.90;;;;;;4919632;29;20239;-74
2023/09/05 11:47:13;;;;;;;1.75;1.00;;;28.00;99.90;;;;;;4919352;29;20296;-75
2023/09/05 11:49:41;;;;;;;2.55;1.02;;;28.00;99.90;;;;;;4919403;29;20669;-74
2023/09/05 11:52:08;;;;;;;1.35;0.90;;;27.90;99.90;;;;;;4919772;29;20629;-75
2023/09/05 11:54:36;;;;;;;1.95;1.42;;;28.00;99.90;;;;;;4919107;29;20328;-74
2023/09/05 11:57:07;;;;;;;1.67;1.10;;;27.90;99.90;;;;;;4919223;29;20256;-72
2023/09/05 11:59:34;;;;;;;1.35;0.88;;;27.80;99.90;;;;;;4918971;29;20245;-73
2023/09/05 12:02:07;;;;;;;3.13;1.95;;;27.80;99.90;;;;;;4919012;29;20269;-73
2023/09/05 12:04:35;;;;;;;4.80;2.60;;;27.90;99.90;;;;;;4919203;29;20233;-72
2023/09/05 12:07:05;;;;;;;1.85;1.48;;;28.00;99.90;;;;;;4919347;29;20209;-74
2023/09/05 12:09:32;;;;;;;2.22;1.33;;;28.10;99.90;;;;;;4919395;29;20300;-70
2023/09/05 12:12:15;;;;;;;1.38;1.05;;;28.10;99.90;;;;;;4918753;29;20202;-74
2023/09/05 12:14:49;;;;;;;1.80;1.10;;;28.10;99.90;;;;;;4919045;29;20324;-75
2023/09/05 12:17:17;;;;;;;1.98;1.05;;;28.30;99.90;;;;;;4919264;29;20232;-74
2023/09/05 12:19:45;;;;;;;2.08;1.33;;;28.20;99.90;;;;;;4919412;29;20210;-74
2023/09/05 12:22:23;;;;;;;2.05;0.98;;;28.20;99.90;;;;;;4918834;29;20265;-74
2023/09/05 12:25:09;;;;;;;2.30;1.20;;;28.20;99.90;;;;;;4919072;29;20245;-74
2023/09/05 12:27:38;;;;;;;1.27;1.00;;;28.10;99.90;;;;;;4918831;29;20249;-76
2023/09/05 12:30:07;;;;;;;1.50;1.05;;;28.20;99.90;;;;;;4919278;29;20293;-73
2023/09/05 12:32:35;;;;;;;1.02;0.80;;;28.20;99.90;;;;;;4918979;29;20225;-70
2023/09/05 12:35:04;;;;;;;1.58;1.23;;;28.40;99.90;;;;;;4918945;29;20296;-74
2023/09/05 12:37:30;;;;;;;1.35;1.10;;;28.50;99.90;;;;;;4918471;29;20554;-75
2023/09/05 12:39:57;;;;;;;1.35;0.90;;;28.60;99.90;;;;;;4918818;29;20267;-74
2023/09/05 12:42:25;;;;;;;1.52;1.10;;;28.60;99.90;;;;;;4918512;29;20240;-75
2023/09/05 12:44:53;;;;;;;1.52;1.20;;;28.60;99.90;;;;;;4918752;29;20292;-74
2023/09/05 12:47:20;;;;;;;1.95;1.15;;;28.50;99.90;;;;;;4918541;29;20252;-73
2023/09/05 12:49:48;;;;;;;1.58;1.10;;;28.70;99.90;;;;;;4918541;29;20245;-74
2023/09/05 12:52:15;;;;;;;2.00;1.33;;;28.70;99.90;;;;;;4918339;29;20206;-73
2023/09/05 12:54:44;;;;;;;1.30;0.98;;;28.80;99.90;;;;;;4918359;29;20328;-74
2023/09/05 12:57:11;;;;;;;1.20;1.08;;;28.80;99.90;;;;;;4918366;29;20255;-74
2023/09/05 12:59:38;;;;;;;5.47;1.10;;;28.80;99.90;;;;;;4918072;29;20214;-74
2023/09/05 13:02:06;;;;;;;2.38;0.90;;;28.80;99.90;;;;;;4918623;29;20206;-74
2023/09/05 13:04:33;;;;;;;2.00;1.40;;;28.90;99.90;;;;;;4918239;29;20265;-75
2023/09/05 13:07:00;;;;;;;1.70;1.05;;;29.00;99.90;;;;;;4918369;29;20255;-74
2023/09/05 13:09:27;;;;;;;3.13;1.05;;;29.10;99.90;;;;;;4918359;29;20253;-74
2023/09/05 13:11:54;;;;;;;1.15;0.85;;;29.10;99.90;;;;;;4918172;29;20214;-74
2023/09/05 13:14:21;;;;;;;1.80;1.10;;;29.10;99.90;;;;;;4917498;29;20328;-74
2023/09/05 13:16:48;;;;;;;2.17;1.48;;;29.20;99.90;;;;;;4917976;29;20248;-74
2023/09/05 13:19:16;;;;;;;3.03;1.10;;;29.20;99.90;;;;;;4917725;29;20238;-71
2023/09/05 13:21:43;;;;;;;1.35;0.90;;;29.30;99.90;;;;;;4917930;29;20732;-70
2023/09/05 13:24:10;;;;;;;2.97;1.13;;;29.30;99.90;;;;;;4917763;29;20760;-71
2023/09/05 13:26:36;;;;;;;5.25;1.27;;;29.10;99.90;;;;;;4917823;29;20228;-73
2023/09/05 13:29:03;;;;;;;3.08;1.05;;;29.20;99.90;;;;;;4917192;29;20657;-74
2023/09/05 13:31:30;;;;;;;3.33;1.33;;;29.20;99.90;;;;;;4917543;29;20239;-74
2023/09/05 13:33:57;;;;;;;1.38;0.90;;;29.30;99.90;;;;;;4917654;29;20335;-74
2023/09/05 13:36:25;;;;;;;2.65;0.98;;;29.40;99.90;;;;;;4917747;29;20249;-74
2023/09/05 13:38:53;;;;;;;1.52;1.10;;;29.40;99.90;;;;;;4917707;29;20260;-76
2023/09/05 13:41:20;;;;;;;1.98;1.13;;;29.30;99.90;;;;;;4917343;29;20216;-71
2023/09/05 13:43:47;;;;;;;1.55;1.15;;;29.40;99.90;;;;;;4917145;29;20265;-75
2023/09/05 13:46:14;;;;;;;1.38;1.00;;;29.40;99.90;;;;;;4917466;29;20703;-74
2023/09/05 13:48:41;;;;;;;1.20;1.00;;;29.30;99.90;;;;;;4917440;29;20221;-70
2023/09/05 13:51:08;;;;;;;1.45;0.98;;;29.30;99.90;;;;;;4917091;29;20677;-74
2023/09/05 13:53:36;;;;;;;1.40;1.00;;;29.30;99.90;;;;;;4917233;29;20272;-73
2023/09/05 13:56:04;;;;;;;1.58;1.02;;;29.40;99.90;;;;;;4917334;29;20241;-74
2023/09/05 13:58:31;;;;;;;1.10;0.90;;;29.40;99.90;;;;;;4917063;29;20220;-74
2023/09/05 14:00:58;;;;;;;1.52;1.20;;;29.50;99.90;;;;;;4917013;29;20347;-74
2023/09/05 14:03:25;;;;;;;1.23;1.10;;;29.60;99.90;;;;;;4917213;29;20233;-74
2023/09/05 14:05:52;;;;;;;1.70;1.20;;;29.70;99.90;;;;;;4917159;29;20683;-76
2023/09/05 14:08:19;;;;;;;2.13;0.93;;;29.70;99.90;;;;;;4917046;29;20255;-71
2023/09/05 14:10:50;;;;;;;1.80;1.10;;;29.60;99.90;;;;;;4917275;29;20283;-72
2023/09/05 14:13:17;;;;;;;1.30;1.00;;;29.70;99.90;;;;;;4914340;29;20298;-73
2023/09/05 14:15:44;;;;;;;2.13;1.33;;;29.80;99.90;;;;;;4929657;29;20240;-75
2023/09/05 14:18:12;;;;;;;0.95;0.85;;;29.90;99.90;;;;;;4921530;29;20204;-73
2023/09/05 14:20:39;;;;;;;1.08;0.80;;;29.90;99.90;;;;;;4924295;29;20677;-74
2023/09/05 14:23:06;;;;;;;1.38;1.00;;;29.90;99.90;;;;;;4916893;29;20265;-71
2023/09/05 14:25:33;;;;;;;1.00;0.88;;;29.90;99.90;;;;;;4915972;29;20304;-73
2023/09/05 14:28:03;;;;;;;1.40;1.10;;;30.00;99.90;;;;;;4916148;29;20298;-74
2023/09/05 14:30:30;;;;;;;2.78;1.13;;;30.10;99.90;;;;;;4922237;29;20660;-70
2023/09/05 14:32:57;;;;;;;2.25;1.35;;;30.00;99.90;;;;;;4921620;29;20273;-69
2023/09/05 14:35:25;;;;;;;2.65;0.90;;;30.00;99.90;;;;;;4915947;29;20272;-71
2023/09/05 14:37:52;;;;;;;1.48;1.15;;;30.10;99.90;;;;;;4916223;29;20223;-75
2023/09/05 14:40:19;;;;;;;7.05;1.30;;;30.20;99.90;;;;;;4915168;29;20249;-72
2023/09/05 14:42:46;;;;;;;1.60;1.30;;;30.10;99.90;;;;;;4915635;29;20350;-72
2023/09/05 14:45:14;;;;;;;1.42;1.20;;;30.20;99.90;;;;;;4916381;29;20273;-70
2023/09/05 14:47:41;;;;;;;1.02;0.93;;;30.20;99.90;;;;;;4915714;29;20297;-72
2023/09/05 14:50:09;;;;;;;1.35;1.00;;;30.30;99.90;;;;;;4916162;29;20213;-73
2023/09/05 14:52:37;;;;;;;1.15;1.00;;;30.20;99.90;;;;;;4915715;29;20319;-71
2023/09/05 14:55:07;;;;;;;1.63;1.00;;;30.20;99.90;;;;;;4915812;29;20244;-72
2023/09/05 14:57:34;;;;;;;3.20;1.00;;;30.20;99.90;;;;;;4915532;29;20326;-70
2023/09/05 15:00:01;;;;;;;1.38;1.10;;;30.10;99.90;;;;;;4916090;29;20293;-71
2023/09/05 15:02:29;;;;;;;2.63;1.38;;;30.10;99.90;;;;;;4916063;29;20631;-72
2023/09/05 15:04:56;;;;;;;4.78;1.00;;;30.10;99.90;;;;;;4916271;29;20309;-71
2023/09/05 15:07:23;;;;;;;2.55;1.15;;;30.20;99.90;;;;;;4918233;29;20244;-70
2023/09/05 15:09:51;;;;;;;1.83;1.10;;;30.10;99.90;;;;;;4915748;29;20248;-71
2023/09/05 15:12:18;;;;;;;2.50;0.82;;;30.20;99.90;;;;;;4915894;29;20665;-72
2023/09/05 15:14:45;;;;;;;1.48;1.02;;;30.30;99.90;;;;;;4915970;29;20696;-72
2023/09/05 15:17:12;;;;;;;2.97;1.13;;;30.20;99.90;;;;;;4915878;29;20267;-72
2023/09/05 15:19:40;;;;;;;0.95;0.85;;;30.20;99.90;;;;;;4915758;29;20245;-72
2023/09/05 15:22:07;;;;;;;2.47;0.90;;;30.20;99.90;;;;;;4915686;29;20244;-72
2023/09/05 15:24:34;;;;;;;2.58;1.10;;;30.30;99.90;;;;;;4915807;29;20763;-70
2023/09/05 15:27:02;;;;;;;1.60;1.02;;;30.30;99.90;;;;;;4915458;29;20277;-71
2023/09/05 15:29:29;;;;;;;1.55;0.98;;;30.30;99.90;;;;;;4915537;29;20677;-70
2023/09/05 15:31:56;;;;;;;1.10;0.95;;;30.30;99.90;;;;;;4915288;29;20237;-71
2023/09/05 15:34:25;;;;;;;1.52;1.10;;;30.30;99.90;;;;;;4915442;29;20249;-72
2023/09/05 15:36:53;;;;;;;1.42;1.02;;;30.30;99.90;;;;;;4915633;29;20304;-72
2023/09/05 15:39:20;;;;;;;2.45;1.15;;;30.30;99.90;;;;;;4915758;29;20241;-73
2023/09/05 15:41:47;;;;;;;1.40;1.10;;;30.30;99.90;;;;;;4916059;29;20648;-74
2023/09/05 15:44:14;;;;;;;1.00;0.90;;;30.30;99.90;;;;;;4916278;29;20641;-72
2023/09/05 15:46:42;;;;;;;1.40;1.10;;;30.40;99.90;;;;;;4916196;29;20661;-72
2023/09/05 15:49:09;;;;;;;1.48;1.13;;;30.40;99.90;;;;;;4915816;29;20237;-72
2023/09/05 15:51:36;;;;;;;1.35;1.17;;;30.30;99.90;;;;;;4917298;29;20245;-71
2023/09/05 15:54:04;;;;;;;2.75;1.42;;;30.40;99.90;;;;;;4919382;29;20320;-70
2023/09/05 15:56:31;;;;;;;1.35;1.08;;;30.30;99.90;;;;;;4919249;29;20300;-71
2023/09/05 15:58:58;;;;;;;1.20;1.10;;;30.30;99.90;;;;;;4919266;29;20301;-72
2023/09/05 16:01:25;;;;;;;2.00;1.30;;;30.30;99.90;;;;;;4919333;29;20269;-72
2023/09/05 16:03:54;;;;;;;1.27;0.98;;;30.20;99.90;;;;;;4919157;29;20272;-70
2023/09/05 16:06:21;;;;;;;1.67;0.98;;;30.10;99.90;;;;;;4919440;29;20237;-71
2023/09/05 16:08:48;;;;;;;1.90;1.27;;;30.10;99.90;;;;;;4919105;29;20266;-73
2023/09/05 16:11:17;;;;;;;2.05;1.10;;;30.10;99.90;;;;;;4919221;29;20310;-73
2023/09/05 16:13:45;;;;;;;2.60;1.00;;;30.10;99.90;;;;;;4918760;29;20885;-73
2023/09/05 16:16:15;;;;;;;1.50;0.98;;;30.10;99.90;;;;;;4918721;29;20279;-72
2023/09/05 16:18:42;;;;;;;1.50;1.20;;;30.00;99.90;;;;;;4918631;29;20213;-71
2023/09/05 16:21:11;;;;;;;1.40;1.10;;;30.20;99.90;;;;;;4918685;29;20209;-72
2023/09/05 16:23:41;;;;;;;1.60;1.10;;;30.10;99.90;;;;;;4918200;29;20225;-72
2023/09/05 16:26:08;;;;;;;1.33;1.00;;;30.10;99.90;;;;;;4918116;29;20218;-72
2023/09/05 16:28:37;;;;;;;1.85;1.20;;;30.10;99.90;;;;;;4918324;29;20622;-73
2023/09/05 16:31:05;;;;;;;2.63;1.10;;;30.00;99.90;;;;;;4917883;29;20241;-70
2023/09/05 16:33:32;;;;;;;1.55;1.17;;;29.90;99.90;;;;;;4918092;29;20236;-72
2023/09/05 16:36:00;;;;;;;6.93;1.25;;;29.90;99.90;;;;;;4918312;29;20324;-70
2023/09/05 16:38:29;;;;;;;1.63;1.10;;;29.90;99.90;;;;;;4918218;29;20300;-73
2023/09/05 16:40:57;;;;;;;1.40;1.00;;;29.80;99.90;;;;;;4918405;29;20237;-72
2023/09/05 16:43:24;;;;;;;3.75;1.10;;;29.80;99.90;;;;;;4918462;29;20272;-72
2023/09/05 16:45:53;;;;;;;2.72;2.33;;;29.70;99.90;;;;;;4916953;29;20209;-71
2023/09/05 16:48:21;;;;;;;1.77;1.30;;;29.60;99.90;;;;;;4931543;29;20308;-71
2023/09/05 16:50:48;;;;;;;2.92;0.93;;;29.60;99.90;;;;;;4919691;29;20206;-71
2023/09/05 16:53:15;;;;;;;1.63;1.17;;;29.50;99.90;;;;;;4929407;29;20229;-71
2023/09/05 16:55:42;;;;;;;1.55;1.10;;;29.40;99.90;;;;;;4917382;29;20238;-70
2023/09/05 16:58:09;;;;;;;1.77;1.20;;;29.30;99.90;;;;;;4917532;29;20624;-71
2023/09/05 17:00:37;;;;;;;1.50;1.00;;;29.30;99.90;;;;;;4917390;29;20245;-71
2023/09/05 17:03:07;;;;;;;1.50;1.00;;;29.20;99.90;;;;;;4919335;29;20239;-71
2023/09/05 17:05:36;;;;;;;2.05;1.20;;;29.20;99.90;;;;;;4926783;29;20615;-70
2023/09/05 17:08:03;;;;;;;1.67;1.10;;;29.30;99.90;;;;;;4917235;29;20222;-71
2023/09/05 17:10:30;;;;;;;2.45;1.40;;;29.20;99.90;;;;;;4917185;29;20214;-71
2023/09/05 17:12:57;;;;;;;2.88;1.60;;;29.20;99.90;;;;;;4917720;29;20566;-70
2023/09/05 17:15:24;;;;;;;1.55;1.27;;;29.20;99.90;;;;;;4917121;29;20704;-71
2023/09/05 17:17:51;;;;;;;1.85;1.25;;;29.00;99.90;;;;;;4917516;29;20252;-71
2023/09/05 17:20:20;;;;;;;3.80;1.67;;;29.00;99.90;;;;;;4917359;29;20217;-71
2023/09/05 17:22:47;;;;;;;2.28;1.23;;;28.90;99.90;;;;;;4917163;29;20324;-73
2023/09/05 17:25:15;;;;;;;1.98;1.25;;;28.90;99.90;;;;;;4917549;29;20241;-71
2023/09/05 17:27:44;;;;;;;2.33;1.33;;;28.80;99.90;;;;;;4917569;29;20269;-69
2023/09/05 17:30:11;;;;;;;1.92;1.60;;;28.80;99.90;;;;;;4917635;29;20216;-72
2023/09/05 17:32:38;;;;;;;2.38;1.50;;;28.70;99.90;;;;;;4917712;29;20272;-71
2023/09/05 17:35:06;;;;;;;5.10;2.20;;;28.60;99.90;;;;;;4917573;29;20324;-72
2023/09/05 17:37:35;;;;;;;4.93;1.95;;;28.40;99.90;;;;;;4917254;29;20213;-73
2023/09/05 17:40:02;;;;;;;5.88;2.70;;;28.40;99.90;;;;;;4917660;29;20209;-72
2023/09/05 17:42:29;;;;;;;6.45;3.70;;;28.30;99.90;;;;;;4917082;29;20210;-71
2023/09/05 17:44:56;;;;;;;3.40;1.63;;;28.10;99.90;;;;;;4917552;29;20580;-73
2023/09/05 17:47:23;;;;;;;2.20;1.35;;;28.10;99.90;;;;;;4917409;29;20609;-72
2023/09/05 17:49:50;;;;;;;4.75;2.75;;;28.00;99.90;;;;;;4917297;29;20672;-73
2023/09/05 17:52:17;;;;;;;3.75;2.63;;;27.80;99.90;;;;;;4917160;29;20241;-72
2023/09/05 17:54:45;;;;;;;4.18;1.90;;;27.70;99.90;;;;;;4917461;29;20320;-72
2023/09/05 17:57:12;;;;;;;3.13;1.90;;;27.60;99.90;;;;;;4917344;29;20296;-72
2023/09/05 17:59:40;;;;;;;4.35;2.33;;;27.40;99.90;;;;;;4917321;29;20252;-73
2023/09/05 18:02:07;;;;;;;3.13;2.05;;;27.40;99.90;;;;;;4917144;29;20236;-68
2023/09/05 18:04:34;;;;;;;5.20;3.72;;;27.20;99.90;;;;;;4916776;29;20313;-71
2023/09/05 18:07:01;;;;;;;7.15;3.47;;;27.10;99.90;;;;;;4912872;29;20210;-72
2023/09/05 18:09:28;;;;;;;5.13;2.42;;;26.90;99.90;;;;;;4908628;29;20253;-71
2023/09/05 18:11:57;;;;;;;3.13;2.03;;;26.80;99.90;;;;;;4907367;29;20665;-73
2023/09/05 18:14:24;;;;;;;3.72;2.20;;;26.60;99.90;;;;;;4915792;29;20316;-73
2023/09/05 18:16:51;;;;;;;3.05;2.00;;;26.40;99.90;;;;;;4907393;29;20248;-73
2023/09/05 18:19:18;;;;;;;4.38;2.20;;;26.30;99.90;;;;;;4910815;29;20241;-72
2023/09/05 18:21:46;;;;;;;4.88;2.28;;;26.10;99.90;;;;;;4907441;29;20202;-71
2023/09/05 18:24:13;;;;;;;6.95;3.00;;;26.00;99.90;;;;;;4911644;29;20233;-72
2023/09/05 18:26:40;;;;;;;14.80;4.75;;;25.80;99.90;;;;;;4915718;29;20213;-71
2023/09/05 18:29:09;;;;;;;9.90;4.60;;;25.70;99.90;;;;;;4914575;29;20210;-72
2023/09/05 18:31:39;;;;;;;7.30;3.30;;;25.50;99.90;;;;;;4913516;29;20205;-72
2023/09/05 18:34:06;;;;;;;9.57;4.35;;;25.50;99.90;;;;;;4912663;29;20232;-72
2023/09/05 18:36:33;;;;;;;8.48;3.83;;;25.40;99.90;;;;;;4913180;29;20327;-72
2023/09/05 18:38:59;;;;;;;7.75;3.47;;;25.30;99.90;;;;;;4910646;29;20297;-72
2023/09/05 18:41:26;;;;;;;4.57;2.42;;;25.30;99.90;;;;;;4915792;29;20305;-71
2023/09/05 18:43:54;;;;;;;4.07;1.70;;;25.10;99.90;;;;;;4913655;29;20237;-71
2023/09/05 18:46:22;;;;;;;3.58;2.10;;;25.00;99.90;;;;;;4916036;29;20217;-72
2023/09/05 18:48:49;;;;;;;2.97;1.85;;;24.90;99.90;;;;;;4915507;29;20377;-72
2023/09/05 18:51:17;;;;;;;2.28;1.35;;;24.90;99.90;;;;;;4916081;29;20296;-72
2023/09/05 18:53:45;;;;;;;2.08;1.48;;;24.80;99.90;;;;;;4915440;29;20728;-71
2023/09/05 18:56:13;;;;;;;3.42;1.40;;;24.70;99.90;;;;;;4915662;29;20574;-72
2023/09/05 18:58:39;;;;;;;2.90;1.70;;;24.60;99.90;;;;;;4915510;29;20630;-72
2023/09/05 19:01:06;;;;;;;2.15;1.35;;;24.50;99.90;;;;;;4915919;29;20725;-71
2023/09/05 19:03:36;;;;;;;2.55;1.40;;;24.50;99.90;;;;;;4915337;29;20225;-70
2023/09/05 19:06:03;;;;;;;2.92;1.70;;;24.40;99.90;;;;;;4915654;29;20296;-71
2023/09/05 19:08:29;;;;;;;4.25;1.55;;;24.30;99.90;;;;;;4915633;29;20233;-72
2023/09/05 19:10:58;;;;;;;3.47;1.92;;;24.20;99.90;;;;;;4915132;29;20297;-71
2023/09/05 19:13:26;;;;;;;1.90;1.52;;;24.20;99.90;;;;;;4915304;29;20641;-69
2023/09/05 19:15:53;;;;;;;2.75;1.48;;;24.00;99.90;;;;;;4915191;29;20786;-69
2023/09/05 19:18:21;;;;;;;3.17;1.50;;;24.00;99.90;;;;;;4915846;29;20361;-72
2023/09/05 19:20:54;;;;;;;1.90;1.38;;;23.90;99.90;;;;;;4915189;29;20677;-73
2023/09/05 19:23:21;;;;;;;2.03;1.40;;;23.80;99.90;;;;;;4915846;29;20250;-72
2023/09/05 19:25:48;;;;;;;2.17;1.50;;;23.80;99.90;;;;;;4915548;29;20356;-72
2023/09/05 19:28:15;;;;;;;2.55;1.55;;;23.70;99.90;;;;;;4919471;29;20221;-72
2023/09/05 19:30:42;;;;;;;3.05;1.58;;;23.70;99.90;;;;;;4918510;29;20577;-72
2023/09/05 19:33:09;;;;;;;2.08;1.42;;;23.60;99.90;;;;;;4919346;29;20324;-71
2023/09/05 19:35:36;;;;;;;2.63;1.85;;;23.50;99.90;;;;;;4918325;29;20760;-72
2023/09/05 19:38:04;;;;;;;1.48;1.33;;;23.40;99.90;;;;;;4918881;29;20244;-72
2023/09/05 19:40:32;;;;;;;2.17;1.45;;;23.40;99.90;;;;;;4918463;29;20218;-71
2023/09/05 19:42:59;;;;;;;4.40;1.52;;;23.30;99.90;;;;;;4918223;29;20688;-70
2023/09/05 19:45:26;;;;;;;2.58;1.65;;;23.30;99.90;;;;;;4918727;29;20215;-71
2023/09/05 19:47:53;;;;;;;2.90;1.77;;;23.30;99.90;;;;;;4916436;29;20248;-70
2023/09/05 19:50:21;;;;;;;2.65;1.50;;;23.20;99.90;;;;;;4918291;29;20549;-70
2023/09/05 19:52:48;;;;;;;5.50;3.10;;;23.20;99.90;;;;;;4918257;29;20316;-70
2023/09/05 19:55:16;;;;;;;5.57;2.20;;;23.20;99.90;;;;;;4918859;29;20296;-71
2023/09/05 19:57:43;;;;;;;5.72;2.58;;;23.00;99.90;;;;;;4917991;29;20257;-72
2023/09/05 20:00:11;;;;;;;4.13;1.70;;;23.00;99.90;;;;;;4918440;29;20252;-71
2023/09/05 20:02:38;;;;;;;3.97;1.60;;;22.90;99.90;;;;;;4917633;29;20228;-72
2023/09/05 20:05:06;;;;;;;7.47;1.92;;;22.90;99.90;;;;;;4918614;29;20279;-71
2023/09/05 20:07:34;;;;;;;7.18;2.10;;;22.90;99.90;;;;;;4918025;29;20297;-71
2023/09/05 20:10:01;;;;;;;3.45;1.75;;;22.80;99.90;;;;;;4918874;29;20628;-71
2023/09/05 20:12:29;;;;;;;2.00;1.40;;;22.80;99.90;;;;;;4917886;29;20292;-72
2023/09/05 20:14:56;;;;;;;2.63;1.83;;;22.80;99.90;;;;;;4918570;29;20249;-72
2023/09/05 20:17:23;;;;;;;2.35;1.58;;;22.80;99.90;;;;;;4917734;29;20245;-72
2023/09/05 20:19:50;;;;;;;3.15;1.90;;;22.70;99.90;;;;;;4918379;29;20237;-71
2023/09/05 20:22:17;;;;;;;2.00;1.52;;;22.70;99.90;;;;;;4917515;29;20210;-69
2023/09/05 20:24:44;;;;;;;3.00;1.90;;;22.60;99.90;;;;;;4918793;29;20229;-70
2023/09/05 20:27:11;;;;;;;3.55;1.63;;;22.60;99.90;;;;;;4917565;29;20281;-71
2023/09/05 20:29:39;;;;;;;4.78;2.10;;;22.50;99.90;;;;;;4918611;29;20288;-72
2023/09/05 20:32:08;;;;;;;3.78;1.60;;;22.50;99.90;;;;;;4918002;29;20229;-71
2023/09/05 20:34:35;;;;;;;2.30;1.63;;;22.50;99.90;;;;;;4908246;29;20221;-71
2023/09/05 20:37:02;;;;;;;3.92;1.50;;;22.40;99.90;;;;;;4917371;29;20656;-71
2023/09/05 20:39:29;;;;;;;1.70;1.42;;;22.40;99.90;;;;;;4917992;29;20260;-71
2023/09/05 20:41:57;;;;;;;3.08;1.50;;;22.30;99.90;;;;;;4917840;29;20249;-70
2023/09/05 20:44:25;;;;;;;3.78;1.33;;;22.30;99.90;;;;;;4917283;29;20229;-71
2023/09/05 20:46:53;;;;;;;3.08;1.30;;;22.30;99.90;;;;;;4917625;29;20218;-70
2023/09/05 20:49:20;;;;;;;3.55;1.42;;;22.10;99.90;;;;;;4917627;29;20253;-72
2023/09/05 20:51:47;;;;;;;2.15;1.58;;;22.10;99.90;;;;;;4917937;29;20210;-72
2023/09/05 20:54:14;;;;;;;4.75;2.10;;;22.10;99.90;;;;;;4917130;29;20261;-71
2023/09/05 20:56:42;;;;;;;3.63;1.60;;;22.10;99.90;;;;;;4917540;29;20312;-72
2023/09/05 20:59:10;;;;;;;3.75;2.00;;;22.10;99.90;;;;;;4912881;29;20206;-71
2023/09/05 21:01:37;;;;;;;2.03;1.50;;;22.10;99.90;;;;;;4900659;29;20237;-72
